createdAt,value
2023-02-20T00:00:39.926Z,13.32
2023-02-20T00:03:07.908Z,14.55
2023-02-20T00:05:35.367Z,13.80
2023-02-20T00:08:02.927Z,12.20
2023-02-20T00:10:30.057Z,13.55
2023-02-20T00:12:57.360Z,13.50
2023-02-20T00:15:24.750Z,14.38
2023-02-20T00:17:53.195Z,13.73
2023-02-20T00:20:23.014Z,14.88
2023-02-20T00:22:51.242Z,13.35
2023-02-20T00:25:20.531Z,14.20
2023-02-20T00:27:48.557Z,13.55
2023-02-20T00:30:18.498Z,13.70
2023-02-20T00:32:47.872Z,13.10
2023-02-20T00:35:15.574Z,13.25
2023-02-20T00:37:42.798Z,13.65
2023-02-20T00:40:12.242Z,13.77
2023-02-20T00:42:39.840Z,12.65
2023-02-20T00:45:07.917Z,14.05
2023-02-20T00:47:35.348Z,12.25
2023-02-20T00:50:03.385Z,12.55
2023-02-20T00:52:30.490Z,13.35
2023-02-20T00:54:57.648Z,12.18
2023-02-20T00:57:25.143Z,12.52
2023-02-20T00:59:53.326Z,12.85
2023-02-20T01:02:20.777Z,13.40
2023-02-20T01:04:49.283Z,12.98
2023-02-20T01:07:16.471Z,13.10
2023-02-20T01:09:43.920Z,12.82
2023-02-20T01:12:11.217Z,12.45
2023-02-20T01:14:38.865Z,12.55
2023-02-20T01:17:05.975Z,12.73
2023-02-20T01:19:33.644Z,13.00
2023-02-20T01:22:00.685Z,13.65
2023-02-20T01:24:27.820Z,12.63
2023-02-20T01:26:55.078Z,13.02
2023-02-20T01:29:22.166Z,13.50
2023-02-20T01:31:51.102Z,12.93
2023-02-20T01:34:19.911Z,12.98
2023-02-20T01:36:51.549Z,11.98
2023-02-20T01:39:25.091Z,12.30
2023-02-20T01:41:57.953Z,13.57
2023-02-20T01:46:57.014Z,11.82
2023-02-20T01:49:39.854Z,12.13
2023-02-20T01:52:18.630Z,12.47
2023-02-20T01:54:53.039Z,10.98
2023-02-20T01:57:23.642Z,11.38
2023-02-20T01:59:56.252Z,11.45
2023-02-20T02:02:25.851Z,12.35
2023-02-20T02:04:53.139Z,12.55
2023-02-20T02:07:24.076Z,12.15
2023-02-20T02:09:59.326Z,11.73
2023-02-20T02:12:29.955Z,12.90
2023-02-20T02:14:57.206Z,12.30
2023-02-20T02:17:57.946Z,11.65
2023-02-20T02:20:58.936Z,12.85
2023-02-20T02:23:55.756Z,11.43
2023-02-20T02:27:00.121Z,12.38
2023-02-20T02:29:45.639Z,10.73
2023-02-20T02:32:50.290Z,11.68
2023-02-20T02:36:01.844Z,10.93
2023-02-20T02:39:02.823Z,11.15
2023-02-20T02:41:45.883Z,11.80
2023-02-20T02:44:36.293Z,11.02
2023-02-20T02:47:07.906Z,11.57
2023-02-20T02:49:48.950Z,10.85
2023-02-20T02:52:36.657Z,10.75
2023-02-20T02:55:05.147Z,11.75
2023-02-20T02:57:32.541Z,10.18
2023-02-20T03:00:14.807Z,11.45
2023-02-20T03:02:58.895Z,10.43
2023-02-20T03:05:40.539Z,10.32
2023-02-20T03:08:34.730Z,10.52
2023-02-20T03:11:07.866Z,9.70
2023-02-20T03:13:59.686Z,9.82
2023-02-20T03:16:35.652Z,10.80
2023-02-20T03:19:09.892Z,9.88
2023-02-20T03:21:38.595Z,10.20
2023-02-20T03:24:06.526Z,10.13
2023-02-20T03:26:37.744Z,9.90
2023-02-20T03:29:14.603Z,9.52
2023-02-20T03:32:13.882Z,9.85
2023-02-20T03:35:02.025Z,10.40
2023-02-20T03:37:53.470Z,9.25
2023-02-20T03:40:41.605Z,10.32
2023-02-20T03:43:28.432Z,10.65
2023-02-20T03:46:12.102Z,10.32
2023-02-20T03:48:58.879Z,9.13
2023-02-20T03:51:45.670Z,9.93
2023-02-20T03:54:23.260Z,9.27
2023-02-20T03:56:55.961Z,9.93
2023-02-20T03:59:31.285Z,10.13
2023-02-20T04:02:02.602Z,10.57
2023-02-20T04:04:42.315Z,11.07
2023-02-20T04:07:15.743Z,11.15
2023-02-20T04:09:46.083Z,11.15
2023-02-20T04:12:23.602Z,10.32
2023-02-20T04:14:53.944Z,9.93
2023-02-20T04:17:30.629Z,10.45
2023-02-20T04:19:59.234Z,9.43
2023-02-20T04:22:30.404Z,9.80
2023-02-20T04:25:22.627Z,10.55
2023-02-20T04:27:50.212Z,10.55
2023-02-20T04:30:17.423Z,9.48
2023-02-20T04:32:45.224Z,10.25
2023-02-20T04:35:18.486Z,10.10
2023-02-20T04:37:47.763Z,10.20
2023-02-20T04:40:18.096Z,9.57
2023-02-20T04:42:45.549Z,10.05
2023-02-20T04:45:12.894Z,10.10
2023-02-20T04:47:40.070Z,9.45
2023-02-20T04:50:07.477Z,9.52
2023-02-20T04:52:34.749Z,9.95
2023-02-20T04:55:01.777Z,8.93
2023-02-20T04:57:29.558Z,8.52
2023-02-20T04:59:56.662Z,9.77
2023-02-20T05:02:23.930Z,10.82
2023-02-20T05:04:50.980Z,10.15
2023-02-20T05:07:18.385Z,9.63
2023-02-20T05:09:45.709Z,9.68
2023-02-20T05:12:12.802Z,9.60
2023-02-20T05:14:39.803Z,9.30
2023-02-20T05:17:06.930Z,8.90
2023-02-20T05:19:34.039Z,9.45
2023-02-20T05:22:19.393Z,8.40
2023-02-20T05:24:48.331Z,8.05
2023-02-20T05:27:17.704Z,8.25
2023-02-20T05:29:46.617Z,9.00
2023-02-20T05:32:14.478Z,8.45
2023-02-20T05:34:41.647Z,7.72
2023-02-20T05:37:09.072Z,8.45
2023-02-20T05:39:36.286Z,8.45
2023-02-20T05:42:03.489Z,8.00
2023-02-20T05:44:30.671Z,8.00
2023-02-20T05:46:57.869Z,7.88
2023-02-20T05:49:25.555Z,8.05
2023-02-20T05:51:53.142Z,8.63
2023-02-20T05:54:20.912Z,9.32
2023-02-20T05:56:48.747Z,12.20
2023-02-20T05:59:18.937Z,11.00
2023-02-20T06:01:46.392Z,8.52
2023-02-20T06:04:14.122Z,8.82
2023-02-20T06:06:42.663Z,7.93
2023-02-20T06:09:11.958Z,11.85
2023-02-20T06:11:40.074Z,8.77
2023-02-20T06:14:07.858Z,7.00
2023-02-20T06:16:35.923Z,7.55
2023-02-20T06:19:03.612Z,7.43
2023-02-20T06:21:30.781Z,6.35
2023-02-20T06:23:57.842Z,7.10
2023-02-20T06:26:25.095Z,7.15
2023-02-20T06:28:54.456Z,6.90
2023-02-20T06:31:53.879Z,6.78
2023-02-20T06:34:21.496Z,7.50
2023-02-20T06:36:48.627Z,6.93
2023-02-20T06:39:16.199Z,7.38
2023-02-20T06:41:44.074Z,7.55
2023-02-20T06:44:11.215Z,7.15
2023-02-20T06:46:38.453Z,7.28
2023-02-20T06:49:05.697Z,6.93
2023-02-20T06:51:34.630Z,6.68
2023-02-20T06:54:02.828Z,7.25
2023-02-20T06:56:32.597Z,6.07
2023-02-20T06:59:00.555Z,5.95
2023-02-20T07:01:31.154Z,6.28
2023-02-20T07:04:00.812Z,7.13
2023-02-20T07:06:28.799Z,7.03
2023-02-20T07:08:55.908Z,7.22
2023-02-20T07:11:24.446Z,7.63
2023-02-20T07:13:52.107Z,6.40
2023-02-20T07:16:19.305Z,7.45
2023-02-20T07:18:46.502Z,7.63
2023-02-20T07:21:13.658Z,8.63
2023-02-20T07:23:40.672Z,9.30
2023-02-20T07:26:08.035Z,10.07
2023-02-20T07:28:38.225Z,9.93
2023-02-20T07:31:05.518Z,10.50
2023-02-20T07:33:32.577Z,11.80
2023-02-20T07:36:00.135Z,12.10
2023-02-20T07:38:27.192Z,11.15
2023-02-20T07:40:54.549Z,13.05
2023-02-20T07:43:21.823Z,9.35
2023-02-20T07:45:51.254Z,9.85
2023-02-20T07:48:18.318Z,10.25
2023-02-20T07:50:45.512Z,10.27
2023-02-20T07:53:17.986Z,11.30
2023-02-20T07:55:45.140Z,11.70
2023-02-20T07:58:12.238Z,14.02
2023-02-20T08:00:39.321Z,14.00
2023-02-20T08:03:06.610Z,15.23
2023-02-20T08:05:48.322Z,16.35
2023-02-20T08:08:16.584Z,17.25
2023-02-20T08:10:43.808Z,17.90
2023-02-20T08:13:11.042Z,15.25
2023-02-20T08:15:38.270Z,16.75
2023-02-20T08:18:12.579Z,16.85
2023-02-20T08:20:43.547Z,15.02
2023-02-20T08:23:18.863Z,12.88
2023-02-20T08:25:46.525Z,11.38
2023-02-20T08:28:14.071Z,6.40
2023-02-20T08:30:41.327Z,11.75
2023-02-20T08:33:09.584Z,11.20
2023-02-20T08:35:37.374Z,10.50
2023-02-20T08:38:06.704Z,10.05
2023-02-20T08:40:34.300Z,14.07
2023-02-20T08:43:01.332Z,13.95
2023-02-20T08:45:28.608Z,14.50
2023-02-20T08:48:02.332Z,15.48
2023-02-20T08:50:29.490Z,14.02
2023-02-20T08:52:56.617Z,13.45
2023-02-20T08:55:23.791Z,14.95
2023-02-20T08:57:50.949Z,15.13
2023-02-20T09:00:19.306Z,14.77
2023-02-20T09:02:49.265Z,15.10
2023-02-20T09:05:17.558Z,13.00
2023-02-20T09:07:45.513Z,15.13
2023-02-20T09:10:13.052Z,15.88
2023-02-20T09:12:42.436Z,14.65
2023-02-20T09:15:10.816Z,14.20
2023-02-20T09:17:39.004Z,12.13
2023-02-20T09:20:10.071Z,9.55
2023-02-20T09:22:37.392Z,13.32
2023-02-20T09:25:05.609Z,9.98
2023-02-20T09:27:33.218Z,9.10
2023-02-20T09:30:00.716Z,8.82
2023-02-20T09:32:27.953Z,7.50
2023-02-20T09:34:55.163Z,6.80
2023-02-20T09:37:22.392Z,7.47
2023-02-20T09:39:49.440Z,7.47
2023-02-20T09:42:43.985Z,7.00
2023-02-20T09:45:25.466Z,7.90
2023-02-20T09:48:00.122Z,7.85
2023-02-20T09:50:44.924Z,10.57
2023-02-20T09:53:32.953Z,10.52
2023-02-20T09:56:02.042Z,10.82
2023-02-20T09:58:47.414Z,11.75
2023-02-20T10:01:20.224Z,11.60
2023-02-20T10:04:01.169Z,11.50
2023-02-20T10:06:34.771Z,11.55
2023-02-20T10:09:04.106Z,9.90
2023-02-20T10:11:49.815Z,10.80
2023-02-20T10:15:04.394Z,9.70
2023-02-20T10:18:08.226Z,9.25
2023-02-20T10:20:46.733Z,10.52
2023-02-20T10:23:35.067Z,11.15
2023-02-20T10:26:07.165Z,9.70
2023-02-20T10:28:34.742Z,9.98
2023-02-20T10:31:18.646Z,9.82
2023-02-20T10:33:59.741Z,10.32
2023-02-20T10:36:38.790Z,8.82
2023-02-20T10:39:08.533Z,8.88
2023-02-20T10:41:54.672Z,9.07
2023-02-20T10:44:28.643Z,9.57
2023-02-20T10:47:12.578Z,9.35
2023-02-20T10:49:55.993Z,9.25
2023-02-20T10:52:35.948Z,9.00
2023-02-20T10:55:11.525Z,9.93
2023-02-20T10:57:48.003Z,9.13
2023-02-20T11:00:23.599Z,9.38
2023-02-20T11:02:58.042Z,8.63
2023-02-20T11:05:29.060Z,8.75
2023-02-20T11:07:56.196Z,8.38
2023-02-20T11:10:23.504Z,9.60
2023-02-20T11:12:52.700Z,8.73
2023-02-20T11:15:24.523Z,9.43
2023-02-20T11:17:56.965Z,8.82
2023-02-20T11:20:33.357Z,8.40
2023-02-20T11:23:01.736Z,7.78
2023-02-20T11:25:36.884Z,8.05
2023-02-20T11:28:23.448Z,7.93
2023-02-20T11:31:03.749Z,7.63
2023-02-20T11:33:34.761Z,5.95
2023-02-20T11:36:20.611Z,8.00
2023-02-20T11:38:48.473Z,6.47
2023-02-20T11:41:26.025Z,7.88
2023-02-20T11:44:14.350Z,7.82
2023-02-20T11:46:41.542Z,9.23
2023-02-20T11:49:29.075Z,8.23
2023-02-20T11:52:18.433Z,6.35
2023-02-20T11:54:48.784Z,5.25
2023-02-20T11:57:16.326Z,6.88
2023-02-20T11:59:48.775Z,7.78
2023-02-20T12:02:15.878Z,8.90
2023-02-20T12:05:01.969Z,8.18
2023-02-20T12:07:35.773Z,6.65
2023-02-20T12:10:37.130Z,5.47
2023-02-20T12:13:05.868Z,3.83
2023-02-20T12:15:32.903Z,3.10
2023-02-20T12:18:24.796Z,5.00
2023-02-20T12:21:25.732Z,5.80
2023-02-20T12:24:28.451Z,7.22
2023-02-20T12:27:02.306Z,4.82
2023-02-20T12:29:49.717Z,4.78
2023-02-20T12:32:46.415Z,4.40
2023-02-20T12:35:28.550Z,4.15
2023-02-20T12:38:23.942Z,4.72
2023-02-20T12:41:19.699Z,4.85
2023-02-20T12:44:12.786Z,4.57
2023-02-20T12:46:43.191Z,4.38
2023-02-20T12:49:18.144Z,4.30
2023-02-20T12:52:04.579Z,3.92
2023-02-20T12:55:00.660Z,4.20
2023-02-20T12:57:36.463Z,3.55
2023-02-20T13:00:22.813Z,4.55
2023-02-20T13:02:56.149Z,4.22
2023-02-20T13:07:57.314Z,4.70
2023-02-20T13:10:39.981Z,4.22
2023-02-20T13:13:11.445Z,4.10
2023-02-20T13:15:50.744Z,4.97
2023-02-20T13:18:23.555Z,4.85
2023-02-20T13:20:55.249Z,4.82
2023-02-20T13:23:22.314Z,5.32
2023-02-20T13:25:51.132Z,5.03
2023-02-20T13:28:20.915Z,5.03
2023-02-20T13:31:11.795Z,4.50
2023-02-20T13:33:41.481Z,4.68
2023-02-20T13:36:39.599Z,4.85
2023-02-20T13:39:25.472Z,4.70
2023-02-20T13:41:58.257Z,4.38
2023-02-20T13:44:28.847Z,4.65
2023-02-20T13:47:04.588Z,4.90
2023-02-20T13:49:49.400Z,4.80
2023-02-20T13:52:40.883Z,5.00
2023-02-20T13:55:11.034Z,5.03
2023-02-20T13:57:49.363Z,4.88
2023-02-20T14:00:44.021Z,4.68
2023-02-20T14:03:12.885Z,5.13
2023-02-20T14:05:40.322Z,5.25
2023-02-20T14:08:16.353Z,5.93
2023-02-20T14:10:47.686Z,5.13
2023-02-20T14:13:39.100Z,5.75
2023-02-20T14:16:27.605Z,5.43
2023-02-20T14:19:14.785Z,4.45
2023-02-20T14:21:42.109Z,4.97
2023-02-20T14:24:29.569Z,4.88
2023-02-20T14:26:57.226Z,5.55
2023-02-20T14:29:31.894Z,4.70
2023-02-20T14:32:02.477Z,5.60
2023-02-20T14:34:50.840Z,5.38
2023-02-20T14:37:26.761Z,5.75
2023-02-20T14:40:39.496Z,5.25
2023-02-20T14:43:22.152Z,5.85
2023-02-20T14:46:08.918Z,4.57
2023-02-20T14:48:42.041Z,4.65
2023-02-20T14:51:24.620Z,5.75
2023-02-20T14:54:13.190Z,6.05
2023-02-20T14:56:41.898Z,5.80
2023-02-20T14:59:29.119Z,5.70
2023-02-20T15:02:00.392Z,5.32
2023-02-20T15:04:28.387Z,5.80
2023-02-20T15:07:04.271Z,5.93
2023-02-20T15:09:43.692Z,5.60
2023-02-20T15:12:29.494Z,5.88
2023-02-20T15:15:08.035Z,5.93
2023-02-20T15:17:38.546Z,5.30
2023-02-20T15:20:20.033Z,5.72
2023-02-20T15:22:47.489Z,6.30
2023-02-20T15:25:32.162Z,5.90
2023-02-20T15:28:10.984Z,6.47
2023-02-20T15:31:03.041Z,6.22
2023-02-20T15:33:33.006Z,5.97
2023-02-20T15:36:00.591Z,6.05
2023-02-20T15:38:31.534Z,5.93
2023-02-20T15:41:00.749Z,5.82
2023-02-20T15:43:48.044Z,6.38
2023-02-20T15:46:17.646Z,5.50
2023-02-20T15:48:45.364Z,6.53
2023-02-20T15:51:18.072Z,5.93
2023-02-20T15:53:46.164Z,6.00
2023-02-20T15:56:14.672Z,5.70
2023-02-20T15:58:43.605Z,5.82
2023-02-20T16:01:12.237Z,5.32
2023-02-20T16:03:50.934Z,6.43
2023-02-20T16:06:20.057Z,5.55
2023-02-20T16:08:47.567Z,6.20
2023-02-20T16:11:15.102Z,5.40
2023-02-20T16:13:46.404Z,6.07
2023-02-20T16:16:25.300Z,6.05
2023-02-20T16:18:55.203Z,6.90
2023-02-20T16:21:24.100Z,7.95
2023-02-20T16:23:51.482Z,8.00
2023-02-20T16:26:26.363Z,7.72
2023-02-20T16:28:58.165Z,7.80
2023-02-20T16:31:54.038Z,7.90
2023-02-20T16:34:23.143Z,7.38
2023-02-20T16:36:51.438Z,7.40
2023-02-20T16:39:26.261Z,7.28
2023-02-20T16:41:55.475Z,5.93
2023-02-20T16:44:42.574Z,6.43
2023-02-20T16:47:15.123Z,6.32
2023-02-20T16:49:42.320Z,7.47
2023-02-20T16:52:25.329Z,8.23
2023-02-20T16:54:55.000Z,7.72
2023-02-20T16:57:23.975Z,7.03
2023-02-20T16:59:57.034Z,6.80
2023-02-20T17:02:29.945Z,7.38
2023-02-20T17:04:58.992Z,7.15
2023-02-20T17:07:26.727Z,7.38
2023-02-20T17:09:54.023Z,7.55
2023-02-20T17:12:23.108Z,7.88
2023-02-20T17:14:50.623Z,7.93
2023-02-20T17:17:17.706Z,8.05
2023-02-20T17:19:44.995Z,7.38
2023-02-20T17:22:14.251Z,6.95
2023-02-20T17:24:43.718Z,7.63
2023-02-20T17:27:12.840Z,7.10
2023-02-20T17:29:43.137Z,7.97
2023-02-20T17:32:10.595Z,7.68
2023-02-20T17:34:37.716Z,7.68
2023-02-20T17:37:06.630Z,7.57
2023-02-20T17:39:34.178Z,7.40
2023-02-20T17:42:01.662Z,7.10
2023-02-20T17:44:31.165Z,7.07
2023-02-20T17:47:00.797Z,7.70
2023-02-20T17:49:28.565Z,6.80
2023-02-20T17:52:01.460Z,7.30
2023-02-20T17:54:32.310Z,8.07
2023-02-20T17:56:59.891Z,6.90
2023-02-20T17:59:27.982Z,7.78
2023-02-20T18:01:55.288Z,7.53
2023-02-20T18:04:23.350Z,7.60
2023-02-20T18:06:50.576Z,7.90
2023-02-20T18:09:18.644Z,8.07
2023-02-20T18:11:46.679Z,8.25
2023-02-20T18:14:14.987Z,8.65
2023-02-20T18:16:42.534Z,8.85
2023-02-20T18:19:13.863Z,9.32
2023-02-20T18:21:42.733Z,8.60
2023-02-20T18:24:11.335Z,8.60
2023-02-20T18:26:38.844Z,8.18
2023-02-20T18:29:05.966Z,8.85
2023-02-20T18:31:33.932Z,8.07
2023-02-20T18:34:02.087Z,8.73
2023-02-20T18:36:30.640Z,8.95
2023-02-20T18:38:58.240Z,7.43
2023-02-20T18:41:26.007Z,9.10
2023-02-20T18:43:53.194Z,8.10
2023-02-20T18:46:39.826Z,7.82
2023-02-20T18:49:07.921Z,7.97
2023-02-20T18:51:40.753Z,8.43
2023-02-20T18:54:11.160Z,9.15
2023-02-20T18:56:39.207Z,8.07
2023-02-20T18:59:06.408Z,8.90
2023-02-20T19:01:34.269Z,8.35
2023-02-20T19:04:04.194Z,8.02
2023-02-20T19:06:34.363Z,8.52
2023-02-20T19:09:01.954Z,7.78
2023-02-20T19:11:30.113Z,7.85
2023-02-20T19:14:01.919Z,7.75
2023-02-20T19:16:29.783Z,7.28
2023-02-20T19:18:56.974Z,7.00
2023-02-20T19:21:24.235Z,6.95
2023-02-20T19:23:51.519Z,7.57
2023-02-20T19:26:18.990Z,7.60
2023-02-20T19:28:47.249Z,8.23
2023-02-20T19:31:15.933Z,10.48
2023-02-20T19:33:43.396Z,10.05
2023-02-20T19:36:10.811Z,11.93
2023-02-20T19:38:39.528Z,12.25
2023-02-20T19:41:07.383Z,13.40
2023-02-20T19:43:35.211Z,13.13
2023-02-20T19:46:02.721Z,14.57
2023-02-20T19:48:30.500Z,14.07
2023-02-20T19:50:58.575Z,13.93
2023-02-20T19:53:26.302Z,14.82
2023-02-20T19:55:55.162Z,15.30
2023-02-20T19:58:22.935Z,15.50
2023-02-20T20:00:51.653Z,15.85
2023-02-20T20:03:19.842Z,15.68
2023-02-20T20:05:48.219Z,14.20
2023-02-20T20:08:16.161Z,16.13
2023-02-20T20:10:43.782Z,15.05
2023-02-20T20:13:11.767Z,14.63
2023-02-20T20:15:39.644Z,14.57
2023-02-20T20:18:09.156Z,14.38
2023-02-20T20:20:37.512Z,15.38
2023-02-20T20:23:05.914Z,14.05
2023-02-20T20:25:33.746Z,14.65
2023-02-20T20:28:03.060Z,14.00
2023-02-20T20:30:32.362Z,14.38
2023-02-20T20:33:01.421Z,14.65
2023-02-20T20:35:30.462Z,13.50
2023-02-20T20:37:59.334Z,18.13
2023-02-20T20:40:28.646Z,14.32
2023-02-20T20:42:58.495Z,12.73
2023-02-20T20:45:26.245Z,12.50
2023-02-20T20:47:54.607Z,12.50
2023-02-20T20:50:28.322Z,12.73
2023-02-20T20:53:03.094Z,13.48
2023-02-20T20:55:31.757Z,12.75
2023-02-20T20:57:59.428Z,13.32
2023-02-20T21:00:31.287Z,12.75
2023-02-20T21:02:59.516Z,12.25
2023-02-20T21:05:30.877Z,13.07
2023-02-20T21:07:59.333Z,12.60
2023-02-20T21:10:27.597Z,13.20
2023-02-20T21:12:55.223Z,12.82
2023-02-20T21:15:23.789Z,12.45
2023-02-20T21:17:51.768Z,12.00
2023-02-20T21:20:23.843Z,12.50
2023-02-20T21:22:52.104Z,11.75
2023-02-20T21:25:25.544Z,12.20
2023-02-20T21:27:55.383Z,11.75
2023-02-20T21:30:24.849Z,11.82
2023-02-20T21:32:52.285Z,11.93
2023-02-20T21:35:22.074Z,12.00
2023-02-20T21:37:49.580Z,12.27
2023-02-20T21:40:18.888Z,11.57
2023-02-20T21:43:04.819Z,11.63
2023-02-20T21:45:31.927Z,12.30
2023-02-20T21:47:59.316Z,11.95
2023-02-20T21:50:27.470Z,12.48
2023-02-20T21:52:55.961Z,12.05
2023-02-20T21:55:23.612Z,12.73
2023-02-20T21:57:51.009Z,11.15
2023-02-20T22:00:18.298Z,11.85
2023-02-20T22:02:45.363Z,12.90
2023-02-20T22:05:12.701Z,12.00
2023-02-20T22:07:58.119Z,12.50
2023-02-20T22:10:43.763Z,13.68
2023-02-20T22:13:29.480Z,13.27
2023-02-20T22:16:15.591Z,12.43
2023-02-20T22:19:01.212Z,12.75
2023-02-20T22:21:47.224Z,13.45
2023-02-20T22:24:38.488Z,12.48
2023-02-20T22:27:27.519Z,12.55
2023-02-20T22:30:15.102Z,11.35
2023-02-20T22:33:00.956Z,12.43
2023-02-20T22:35:46.957Z,12.43
2023-02-20T22:38:32.643Z,12.70
2023-02-20T22:41:18.389Z,11.75
2023-02-20T22:44:04.020Z,12.32
2023-02-20T22:46:49.580Z,13.50
2023-02-20T22:49:35.386Z,13.32
2023-02-20T22:52:21.021Z,11.80
2023-02-20T22:55:08.382Z,12.95
2023-02-20T22:57:54.125Z,11.95
2023-02-20T23:00:39.851Z,11.40
2023-02-20T23:03:25.416Z,13.50
2023-02-20T23:06:17.950Z,12.70
2023-02-20T23:09:08.933Z,11.40
2023-02-20T23:11:55.812Z,11.25
2023-02-20T23:14:43.581Z,11.05
2023-02-20T23:17:36.329Z,10.48
2023-02-20T23:20:37.695Z,12.40
2023-02-20T23:23:24.664Z,12.02
2023-02-20T23:26:10.370Z,11.65
2023-02-20T23:28:56.078Z,11.25
2023-02-20T23:31:57.768Z,10.85
2023-02-20T23:34:44.220Z,10.23
2023-02-20T23:37:30.102Z,10.50
2023-02-20T23:40:21.245Z,8.43
2023-02-20T23:43:11.493Z,9.95
2023-02-20T23:45:57.169Z,8.48
2023-02-20T23:48:42.677Z,9.30
2023-02-20T23:51:32.376Z,8.50
2023-02-20T23:54:18.474Z,9.05
2023-02-20T23:57:04.264Z,8.60
2023-02-20T23:59:49.975Z,9.20
